CheckWX is a tool to help pilots better visualize weather data.  It is not intended as a substitute for an official pre-flight weather briefing.

05:17:01 UTC

CYPY METAR
Fort Chipewyan Airport
Fort Chipewyan, Canada
Current

28 mins ago

CYPY 200449Z AUTO 04005KT 9SM OVC013 M15/M18 A2980 RMK SLP117
Observed
Feb-20 @ 04:49 UTC
Wind
  • 040° at 5 KTS
Visibility
14,484 meters
Flight Rules
MVFR
Cloud Levels
  • Overcast at 1,300' AGL
Temperature
-15°C / 5°F
Dewpoint
-18°C / -0°F
Humidity
78%
Altimeter
29.8" Hg
Pressure
1011.7 hPa
Previous

1 hour ago

CYPY 200414Z AUTO 04007KT 9SM -SN OVC013 M15/M18 A2979 RMK SLP114
Observed
Feb-20 @ 04:14 UTC
Wind
  • 040° at 7 KTS
Visibility
14,484 meters
Flight Rules
MVFR
Conditions
Light Snow
Cloud Levels
  • Overcast at 1,300' AGL
Temperature
-15°C / 5°F
Dewpoint
-18°C / -0°F
Humidity
78%
Altimeter
29.79" Hg
Pressure
1011.4 hPa
Previous

1 hour ago

CYPY 200358Z AUTO 05007KT 9SM OVC015 M15/M18 A2978 RMK SLP112
Observed
Feb-20 @ 03:58 UTC
Wind
  • 050° at 7 KTS
Visibility
14,484 meters
Flight Rules
MVFR
Cloud Levels
  • Overcast at 1,500' AGL
Temperature
-15°C / 5°F
Dewpoint
-18°C / -0°F
Humidity
78%
Altimeter
29.78" Hg
Pressure
1011.2 hPa